Time;durP1;ratioP1;P1;durP2;ratioP2;P2;SDS_P1;SDS_P2;PMS_P1;PMS_P2;Temp;Humidity;BMP_temperature;BMP_pressure;BME280_temperature;BME280_humidity;BME280_pressure;Samples;Min_cycle;Max_cycle;Signal;HPM_P1;HPM_P2
2022/07/06 00:00:07;;;;;;;4.60;2.00;;;;;;;19.17;53.56;98648.97;5073684;28;20231;-70
2022/07/06 00:02:33;;;;;;;4.27;1.83;;;;;;;19.12;54.58;98651.63;5072851;28;20208;-70
2022/07/06 00:05:00;;;;;;;1.80;1.70;;;;;;;19.02;54.70;98651.56;5073695;28;20212;-69
2022/07/06 00:07:26;;;;;;;3.20;2.47;;;;;;;19.09;54.43;98647.59;5074189;28;20287;-69
2022/07/06 00:09:53;;;;;;;4.77;2.53;;;;;;;18.98;55.06;98651.28;5073585;28;20311;-70
2022/07/06 00:12:19;;;;;;;4.87;1.80;;;;;;;18.98;54.80;98645.06;5073557;28;20291;-70
2022/07/06 00:14:46;;;;;;;3.33;1.77;;;;;;;18.87;55.41;98640.69;5072331;28;20300;-69
2022/07/06 00:17:12;;;;;;;2.10;1.80;;;;;;;18.93;54.79;98648.56;5073167;28;20224;-69
2022/07/06 00:19:38;;;;;;;4.77;2.00;;;;;;;18.87;55.03;98648.78;5073167;28;20228;-69
2022/07/06 00:22:05;;;;;;;3.80;1.60;;;;;;;18.84;55.42;98641.19;5073555;28;20208;-69
2022/07/06 00:24:31;;;;;;;3.27;1.70;;;;;;;18.77;55.75;98633.31;5073184;28;20208;-69
2022/07/06 00:26:58;;;;;;;2.77;1.83;;;;;;;18.74;55.78;98635.72;5073444;28;20291;-69
2022/07/06 00:29:24;;;;;;;2.57;1.90;;;;;;;18.68;56.87;98636.75;5073387;28;20319;-69
2022/07/06 00:31:50;;;;;;;5.20;2.03;;;;;;;18.78;55.44;98634.16;5073127;28;20235;-70
2022/07/06 00:34:17;;;;;;;7.50;2.20;;;;;;;18.71;55.95;98641.63;5073391;28;20214;-69
2022/07/06 00:36:43;;;;;;;3.73;1.73;;;;;;;18.60;56.78;98635.31;5073327;28;20236;-70
2022/07/06 00:39:09;;;;;;;4.63;2.00;;;;;;;18.61;56.43;98649.63;5073305;28;20224;-69
2022/07/06 00:41:36;;;;;;;4.43;2.10;;;;;;;18.56;56.63;98639.63;5073363;28;20307;-69
2022/07/06 00:44:08;;;;;;;2.77;1.90;;;;;;;18.54;57.33;98647.13;5073290;28;20200;-69
2022/07/06 00:46:35;;;;;;;6.30;2.40;;;;;;;18.57;56.37;98641.25;5073288;28;20276;-69
2022/07/06 00:49:01;;;;;;;3.43;1.93;;;;;;;18.46;57.09;98641.41;5073182;28;20259;-70
2022/07/06 00:51:34;;;;;;;2.57;2.00;;;;;;;18.42;56.97;98635.69;5074339;28;20212;-70
2022/07/06 00:54:04;;;;;;;2.10;1.80;;;;;;;18.50;56.48;98648.72;5073496;28;20229;-69
2022/07/06 00:56:32;;;;;;;4.30;2.00;;;;;;;18.49;56.27;98649.78;5073091;28;20235;-69
2022/07/06 00:59:01;;;;;;;6.23;2.10;;;;;;;18.45;56.01;98635.19;5072997;28;20225;-70
2022/07/06 01:01:27;;;;;;;3.70;1.73;;;;;;;18.50;56.20;98639.84;5073122;28;20206;-70
2022/07/06 01:03:54;;;;;;;3.23;2.20;;;;;;;18.39;56.92;98638.91;5072794;28;20747;-69
2022/07/06 01:06:20;;;;;;;5.77;2.17;;;;;;;18.39;57.26;98638.09;5073094;28;20201;-69
2022/07/06 01:08:48;;;;;;;6.30;1.73;;;;;;;18.25;56.75;98640.38;5072698;28;20315;-69
2022/07/06 01:11:14;;;;;;;5.30;2.07;;;;;;;18.26;56.42;98638.47;5073219;28;20227;-70
2022/07/06 01:13:42;;;;;;;3.40;1.70;;;;;;;18.32;56.60;98634.78;5073502;28;20748;-69
2022/07/06 01:16:08;;;;;;;2.77;2.03;;;;;;;18.35;56.57;98634.28;5076705;28;20230;-69
2022/07/06 01:18:34;;;;;;;5.87;1.80;;;;;;;18.22;57.56;98640.84;5076227;28;20239;-69
2022/07/06 01:21:12;;;;;;;7.63;2.10;;;;;;;18.26;56.91;98633.09;5076687;28;20193;-69
2022/07/06 01:23:47;;;;;;;1.87;1.73;;;;;;;18.21;56.81;98636.53;5076395;28;20189;-69
2022/07/06 01:26:17;;;;;;;4.53;1.77;;;;;;;18.13;56.94;98636.16;5076339;28;20635;-69
2022/07/06 01:28:44;;;;;;;3.97;1.87;;;;;;;18.13;56.90;98628.09;5076640;28;20711;-69
2022/07/06 01:31:18;;;;;;;2.50;1.63;;;;;;;18.16;56.81;98631.13;5075298;28;20295;-69
2022/07/06 01:33:45;;;;;;;3.00;1.87;;;;;;;18.07;56.90;98637.19;5076439;28;20290;-70
2022/07/06 01:36:11;;;;;;;4.60;1.90;;;;;;;18.01;56.92;98632.81;5076304;28;20220;-70
2022/07/06 01:38:49;;;;;;;4.03;1.67;;;;;;;17.94;57.58;98637.56;5076290;28;20229;-69
2022/07/06 01:41:16;;;;;;;1.80;1.70;;;;;;;17.90;57.80;98634.59;5076385;28;20279;-69
2022/07/06 01:43:43;;;;;;;3.60;2.23;;;;;;;17.87;57.60;98632.38;5075969;28;20293;-69
2022/07/06 01:46:10;;;;;;;1.87;1.70;;;;;;;17.84;57.60;98632.91;5076245;28;20209;-69
2022/07/06 01:48:36;;;;;;;2.33;1.80;;;;;;;17.80;57.63;98621.03;5076105;28;20734;-69
2022/07/06 01:51:04;;;;;;;3.53;1.83;;;;;;;17.85;56.85;98634.53;5076132;28;20201;-69
2022/07/06 01:53:30;;;;;;;3.17;1.70;;;;;;;17.79;57.79;98629.34;5076097;28;20662;-69
2022/07/06 01:55:57;;;;;;;2.70;1.70;;;;;;;17.74;57.13;98635.44;5075935;28;20204;-69
2022/07/06 01:58:23;;;;;;;3.67;1.80;;;;;;;17.75;57.53;98634.41;5075923;28;20322;-69
2022/07/06 02:00:50;;;;;;;2.10;1.90;;;;;;;17.71;56.99;98632.47;5075967;28;20205;-69
2022/07/06 02:03:16;;;;;;;2.40;1.90;;;;;;;17.78;57.32;98643.84;5075909;28;20219;-69
2022/07/06 02:05:42;;;;;;;3.63;2.10;;;;;;;17.74;57.68;98643.53;5075863;28;20291;-70
2022/07/06 02:08:09;;;;;;;3.43;1.90;;;;;;;17.66;58.02;98641.28;5076027;28;20217;-69
2022/07/06 02:10:35;;;;;;;3.33;1.70;;;;;;;17.62;57.01;98640.16;5075890;28;20208;-69
2022/07/06 02:13:01;;;;;;;3.03;1.80;;;;;;;17.56;58.68;98643.81;5075734;28;20205;-69
2022/07/06 02:15:28;;;;;;;2.37;1.70;;;;;;;17.54;57.43;98643.28;5075707;28;20200;-70
2022/07/06 02:17:54;;;;;;;2.27;1.53;;;;;;;17.46;58.28;98645.59;5075097;28;20228;-69
2022/07/06 02:20:21;;;;;;;1.70;1.53;;;;;;;17.51;57.95;98642.97;5075461;28;20215;-70
2022/07/06 02:22:47;;;;;;;3.07;1.67;;;;;;;17.39;57.85;98637.69;5075780;28;20200;-69
2022/07/06 02:25:13;;;;;;;6.27;1.80;;;;;;;17.45;58.00;98644.75;5075394;28;20205;-70
2022/07/06 02:27:40;;;;;;;2.57;1.80;;;;;;;17.43;58.73;98638.84;5075929;28;20303;-69
2022/07/06 02:30:07;;;;;;;5.60;1.70;;;;;;;17.48;57.64;98644.28;5075068;28;20236;-69
2022/07/06 02:32:33;;;;;;;2.03;1.80;;;;;;;17.42;58.54;98641.78;5075333;28;20377;-69
2022/07/06 02:35:00;;;;;;;4.93;1.80;;;;;;;17.32;58.62;98644.28;5075305;28;20211;-69
2022/07/06 02:37:26;;;;;;;3.70;1.90;;;;;;;17.43;58.47;98635.31;5075144;28;20221;-69
2022/07/06 02:39:52;;;;;;;2.40;1.87;;;;;;;17.31;58.24;98646.16;5074957;28;20313;-69
2022/07/06 02:42:19;;;;;;;4.90;1.80;;;;;;;17.33;58.44;98652.09;5075862;28;20314;-69
2022/07/06 02:44:45;;;;;;;2.73;1.60;;;;;;;17.34;58.06;98655.59;5075101;28;20209;-70
2022/07/06 02:47:12;;;;;;;4.60;2.10;;;;;;;17.37;58.26;98649.72;5075533;28;20705;-69
2022/07/06 02:49:38;;;;;;;4.17;1.83;;;;;;;17.35;58.59;98655.34;5074982;28;20307;-69
2022/07/06 02:52:04;;;;;;;2.53;1.70;;;;;;;17.25;59.17;98652.53;5074637;28;20214;-69
2022/07/06 02:54:31;;;;;;;2.60;1.90;;;;;;;17.22;59.71;98660.25;5074603;28;20205;-69
2022/07/06 02:56:57;;;;;;;5.13;1.80;;;;;;;17.21;59.01;98656.75;5074469;28;20224;-69
2022/07/06 02:59:24;;;;;;;2.97;1.70;;;;;;;17.27;58.90;98654.94;5074395;28;20725;-69
2022/07/06 03:01:50;;;;;;;2.67;1.90;;;;;;;17.15;59.25;98663.09;5075005;28;20298;-69
2022/07/06 03:04:16;;;;;;;3.37;1.87;;;;;;;17.10;60.09;98662.22;5075253;28;20537;-69
2022/07/06 03:06:43;;;;;;;3.67;1.87;;;;;;;17.05;59.87;98665.63;5074600;28;20296;-69
2022/07/06 03:09:09;;;;;;;4.53;2.07;;;;;;;16.98;59.84;98664.19;5074572;28;20227;-69
2022/07/06 03:11:36;;;;;;;2.80;1.70;;;;;;;16.93;60.80;98667.63;5074493;28;20288;-69
2022/07/06 03:14:04;;;;;;;3.77;1.87;;;;;;;16.95;60.97;98673.53;5074414;28;20212;-69
2022/07/06 03:16:31;;;;;;;3.87;2.00;;;;;;;16.90;60.63;98670.78;5074959;28;20570;-70
2022/07/06 03:18:57;;;;;;;3.37;1.93;;;;;;;16.91;60.99;98674.25;5073921;28;20236;-69
2022/07/06 03:21:25;;;;;;;4.23;2.10;;;;;;;16.86;61.31;98680.38;5073897;28;20207;-69
2022/07/06 03:23:51;;;;;;;2.47;2.27;;;;;;;16.83;61.12;98678.16;5074270;28;20228;-69
2022/07/06 03:26:18;;;;;;;2.80;1.90;;;;;;;16.77;61.81;98668.41;5073875;28;20211;-69
2022/07/06 03:28:44;;;;;;;3.20;2.20;;;;;;;16.85;61.69;98680.63;5073631;28;20216;-69
2022/07/06 03:31:10;;;;;;;4.10;2.00;;;;;;;16.82;61.62;98679.22;5074005;28;20296;-69
2022/07/06 03:33:37;;;;;;;4.07;2.10;;;;;;;16.82;61.83;98678.44;5073839;28;20223;-69
2022/07/06 03:36:04;;;;;;;2.67;2.30;;;;;;;16.73;62.20;98672.63;5073389;28;20554;-69
2022/07/06 03:38:31;;;;;;;3.17;2.10;;;;;;;16.66;62.27;98685.41;5072664;28;20228;-69
2022/07/06 03:40:57;;;;;;;5.90;2.10;;;;;;;16.66;62.98;98682.75;5073699;28;20304;-69
2022/07/06 03:43:24;;;;;;;2.40;2.00;;;;;;;16.72;62.87;98681.75;5073267;28;20686;-68
2022/07/06 03:45:50;;;;;;;3.17;2.20;;;;;;;16.72;63.23;98680.94;5073586;28;20215;-69
2022/07/06 03:48:17;;;;;;;4.40;1.93;;;;;;;16.64;63.35;98692.88;5073285;28;20229;-69
2022/07/06 03:50:43;;;;;;;5.40;2.30;;;;;;;16.76;63.30;98680.22;5073323;28;20683;-69
2022/07/06 03:53:09;;;;;;;4.43;1.97;;;;;;;16.66;63.43;98680.06;5073598;28;20223;-69
2022/07/06 03:55:36;;;;;;;5.13;2.27;;;;;;;16.64;63.37;98684.81;5073617;28;20299;-69
2022/07/06 03:58:02;;;;;;;4.27;2.33;;;;;;;16.63;63.40;98687.75;5073359;28;20224;-69
2022/07/06 04:00:29;;;;;;;3.73;2.43;;;;;;;16.63;63.64;98685.06;5073617;28;20204;-69
2022/07/06 04:02:55;;;;;;;7.13;2.50;;;;;;;16.56;63.58;98687.91;5073092;28;20570;-69
2022/07/06 04:05:22;;;;;;;6.27;2.40;;;;;;;16.69;63.68;98695.66;5073478;28;20204;-69
2022/07/06 04:07:49;;;;;;;4.40;2.30;;;;;;;16.63;64.50;98693.94;5073130;28;20660;-69
2022/07/06 04:10:17;;;;;;;4.00;2.40;;;;;;;16.57;64.27;98692.25;5073765;28;20659;-69
2022/07/06 04:12:44;;;;;;;5.63;2.50;;;;;;;16.44;64.57;98691.72;5073523;28;20212;-69
2022/07/06 04:15:11;;;;;;;3.63;2.40;;;;;;;16.48;65.33;98696.38;5073181;28;20308;-69
2022/07/06 04:17:53;;;;;;;2.70;1.97;;;;;;;16.51;65.81;98703.13;5073635;28;20220;-69
2022/07/06 04:20:21;;;;;;;2.63;2.43;;;;;;;16.58;65.37;98706.47;5073127;28;20217;-69
2022/07/06 04:22:48;;;;;;;3.47;2.77;;;;;;;16.59;65.31;98711.59;5073198;28;20205;-69
2022/07/06 04:25:15;;;;;;;5.20;2.70;;;;;;;16.60;65.28;98701.69;5072860;28;20616;-69
2022/07/06 04:27:42;;;;;;;8.50;2.60;;;;;;;16.58;65.68;98709.97;5073212;28;20203;-69
2022/07/06 04:30:09;;;;;;;6.60;2.67;;;;;;;16.65;66.00;98707.13;5073136;28;20220;-69
2022/07/06 04:32:36;;;;;;;3.23;2.73;;;;;;;16.50;65.41;98713.03;5072990;28;20295;-69
2022/07/06 04:35:04;;;;;;;3.40;2.40;;;;;;;16.56;66.79;98717.44;5072747;28;20206;-69
2022/07/06 04:37:31;;;;;;;4.63;2.60;;;;;;;16.66;66.33;98711.44;5072350;28;20270;-69
2022/07/06 04:39:57;;;;;;;5.43;2.70;;;;;;;16.61;65.95;98722.88;5072985;28;20315;-69
2022/07/06 04:42:24;;;;;;;3.67;2.70;;;;;;;16.67;66.57;98713.06;5072379;28;20208;-69
2022/07/06 04:44:51;;;;;;;7.23;3.10;;;;;;;16.65;66.29;98720.56;5072526;28;20295;-69
2022/07/06 04:47:18;;;;;;;6.67;2.80;;;;;;;16.65;66.08;98729.41;5072779;28;20196;-69
2022/07/06 04:49:44;;;;;;;5.17;3.00;;;;;;;16.58;66.21;98723.38;5075387;28;20228;-69
2022/07/06 04:52:11;;;;;;;5.20;2.93;;;;;;;16.76;66.08;98725.03;5076948;28;20232;-69
2022/07/06 04:54:37;;;;;;;5.17;3.23;;;;;;;16.71;66.05;98722.28;5077404;28;20208;-69
2022/07/06 04:57:04;;;;;;;4.67;3.00;;;;;;;16.56;66.37;98725.47;5076719;28;20318;-69
2022/07/06 04:59:31;;;;;;;6.37;2.97;;;;;;;16.56;66.90;98730.84;5076258;28;20238;-69
2022/07/06 05:01:57;;;;;;;5.90;3.00;;;;;;;16.67;66.41;98730.00;5076625;28;20291;-69
2022/07/06 05:04:24;;;;;;;4.73;2.80;;;;;;;16.80;67.42;98731.56;5076711;28;20204;-69
2022/07/06 05:06:51;;;;;;;6.20;2.90;;;;;;;16.74;66.28;98733.34;5076354;28;20215;-69
2022/07/06 05:09:17;;;;;;;3.00;2.73;;;;;;;16.89;66.55;98736.31;5076195;28;20220;-69
2022/07/06 05:11:44;;;;;;;6.47;3.03;;;;;;;17.02;65.71;98732.47;5075827;28;20215;-69
2022/07/06 05:14:11;;;;;;;3.73;2.90;;;;;;;17.27;65.59;98740.94;5075994;28;20258;-69
2022/07/06 05:16:37;;;;;;;4.53;2.80;;;;;;;17.51;64.76;98729.78;5076216;28;20215;-69
2022/07/06 05:19:04;;;;;;;4.97;2.57;;;;;;;17.85;63.46;98744.81;5075331;28;20244;-69
2022/07/06 05:21:30;;;;;;;3.43;2.80;;;;;;;18.20;61.83;98728.31;5075836;28;20214;-69
2022/07/06 05:23:56;;;;;;;5.43;2.50;;;;;;;18.61;60.55;98733.94;5075570;28;20295;-70
2022/07/06 05:26:23;;;;;;;5.23;4.10;;;;;;;18.69;60.15;98735.34;5075591;28;20209;-69
2022/07/06 05:28:49;;;;;;;3.77;2.60;;;;;;;18.74;59.42;98741.59;5075492;28;20220;-70
2022/07/06 05:31:16;;;;;;;3.23;2.40;;;;;;;18.86;59.67;98741.47;5076184;28;20291;-69
2022/07/06 05:33:42;;;;;;;5.43;2.90;;;;;;;18.65;60.05;98739.63;5075792;28;20200;-69
2022/07/06 05:36:09;;;;;;;5.80;2.70;;;;;;;18.34;60.53;98740.34;5076661;28;20287;-69
2022/07/06 05:38:35;;;;;;;7.13;3.30;;;;;;;18.32;61.28;98751.31;5075644;28;20256;-70
2022/07/06 05:41:01;;;;;;;4.67;2.80;;;;;;;18.52;61.77;98753.47;5075951;28;20204;-69
2022/07/06 05:43:28;;;;;;;4.93;3.20;;;;;;;17.81;62.09;98751.75;5075422;28;20618;-69
2022/07/06 05:45:54;;;;;;;5.57;2.70;;;;;;;18.34;62.86;98743.88;5074937;28;20759;-69
2022/07/06 05:51:04;;;;;;;3.77;2.67;;;;;;;18.02;62.36;98728.63;5054124;28;20216;-69
2022/07/06 05:53:30;;;;;;;6.13;3.10;;;;;;;17.88;62.70;98747.03;5075432;28;20292;-69
2022/07/06 05:55:57;;;;;;;4.30;3.00;;;;;;;18.15;62.62;98739.81;5075548;28;20235;-70
2022/07/06 05:58:24;;;;;;;3.50;2.63;;;;;;;18.29;61.47;98742.94;5074672;28;20727;-69
2022/07/06 06:00:51;;;;;;;4.87;2.87;;;;;;;18.21;60.58;98744.22;5074361;28;20686;-70
2022/07/06 06:03:18;;;;;;;5.10;3.00;;;;;;;18.12;60.95;98748.41;5074965;28;20206;-69
2022/07/06 06:05:44;;;;;;;3.53;2.50;;;;;;;18.11;60.56;98741.41;5074887;28;20690;-69
2022/07/06 06:08:11;;;;;;;8.87;3.43;;;;;;;18.44;60.63;98752.06;5074627;28;20220;-70
2022/07/06 06:10:37;;;;;;;7.47;2.73;;;;;;;18.53;61.10;98747.84;5074937;28;20211;-70
2022/07/06 06:13:04;;;;;;;4.00;2.60;;;;;;;18.58;58.96;98747.91;5075081;28;20232;-69
2022/07/06 06:15:30;;;;;;;12.17;9.27;;;;;;;18.62;61.05;98743.63;5074749;28;20750;-69
2022/07/06 06:17:57;;;;;;;5.67;2.73;;;;;;;18.82;59.95;98753.81;5074294;28;20319;-69
2022/07/06 06:20:23;;;;;;;3.63;2.47;;;;;;;18.79;60.20;98754.31;5075013;28;20322;-70
2022/07/06 06:22:54;;;;;;;6.70;2.70;;;;;;;18.31;59.49;98749.72;5074870;28;20295;-70
2022/07/06 06:25:28;;;;;;;5.43;2.37;;;;;;;18.92;59.39;98754.69;5074855;28;20291;-69
2022/07/06 06:27:55;;;;;;;8.17;2.83;;;;;;;18.61;58.79;98757.34;5074764;28;20185;-70
2022/07/06 06:30:21;;;;;;;6.10;2.77;;;;;;;18.54;59.20;98765.63;5074338;28;20746;-70
2022/07/06 06:32:48;;;;;;;5.07;2.50;;;;;;;18.20;59.63;98761.44;5074471;28;20205;-70
2022/07/06 06:35:14;;;;;;;4.30;2.43;;;;;;;18.42;59.60;98769.53;5074294;28;20690;-69
2022/07/06 06:37:41;;;;;;;9.23;2.90;;;;;;;18.55;59.61;98769.94;5074447;28;20231;-70
2022/07/06 06:40:09;;;;;;;5.57;2.70;;;;;;;18.71;60.02;98768.22;5074480;28;20249;-69
2022/07/06 06:42:39;;;;;;;9.30;2.87;;;;;;;18.52;59.54;98775.03;5074608;28;20208;-69
2022/07/06 06:45:06;;;;;;;5.53;2.87;;;;;;;18.70;59.50;98774.69;5074703;28;20295;-68
2022/07/06 06:47:33;;;;;;;10.17;2.67;;;;;;;18.75;59.64;98772.88;5074587;28;20204;-68
2022/07/06 06:49:59;;;;;;;9.80;3.03;;;;;;;18.97;58.96;98767.41;5074348;28;20664;-68
2022/07/06 06:52:26;;;;;;;11.67;2.83;;;;;;;19.17;58.79;98771.09;5074449;28;20291;-68
2022/07/06 06:54:52;;;;;;;2.83;2.53;;;;;;;19.20;59.03;98769.78;5074297;28;20283;-69
2022/07/06 06:57:18;;;;;;;4.40;2.23;;;;;;;18.96;58.93;98766.59;5074253;28;20230;-69
2022/07/06 06:59:45;;;;;;;4.30;2.33;;;;;;;19.33;58.42;98774.78;5074374;28;20224;-69
2022/07/06 07:02:11;;;;;;;6.70;2.70;;;;;;;19.37;56.22;98765.91;5073787;28;20694;-68
2022/07/06 07:04:37;;;;;;;8.57;2.30;;;;;;;19.04;58.28;98765.31;5075056;28;20208;-68
2022/07/06 07:07:04;;;;;;;6.87;2.53;;;;;;;19.27;58.17;98768.53;5073968;28;20216;-68
2022/07/06 07:09:30;;;;;;;3.87;2.50;;;;;;;19.37;56.49;98763.22;5074239;28;20221;-69
2022/07/06 07:11:57;;;;;;;4.63;2.47;;;;;;;18.92;57.53;98759.28;5073680;28;20650;-68
2022/07/06 07:14:24;;;;;;;3.43;2.50;;;;;;;18.78;57.39;98774.25;5073841;28;20264;-69
2022/07/06 07:16:50;;;;;;;4.70;2.63;;;;;;;18.63;58.47;98761.41;5074213;28;20291;-69
2022/07/06 07:19:16;;;;;;;15.17;10.33;;;;;;;18.94;57.96;98757.97;5073392;28;20228;-69
2022/07/06 07:21:43;;;;;;;6.10;2.50;;;;;;;19.22;59.48;98759.53;5074077;28;20205;-68
2022/07/06 07:24:09;;;;;;;5.83;3.00;;;;;;;18.81;57.04;98763.75;5073924;28;20303;-69
2022/07/06 07:26:36;;;;;;;6.77;2.60;;;;;;;18.71;58.83;98769.03;5073660;28;20321;-69
2022/07/06 07:29:03;;;;;;;4.63;2.33;;;;;;;18.96;58.13;98761.19;5073349;28;20307;-69
2022/07/06 07:31:29;;;;;;;3.03;2.53;;;;;;;18.90;58.66;98758.72;5073588;28;20200;-68
2022/07/06 07:33:56;;;;;;;4.37;2.77;;;;;;;19.08;58.55;98758.34;5073819;28;20626;-69
2022/07/06 07:36:24;;;;;;;5.60;3.20;;;;;;;19.39;56.52;98750.28;5073295;28;20236;-69
2022/07/06 07:38:51;;;;;;;6.07;2.40;;;;;;;19.48;57.00;98752.53;5073140;28;20698;-68
2022/07/06 07:41:17;;;;;;;5.03;2.37;;;;;;;19.57;57.27;98748.28;5073168;28;20688;-68
2022/07/06 07:43:44;;;;;;;4.00;2.53;;;;;;;19.63;58.58;98756.94;5073705;28;20208;-69
2022/07/06 07:46:11;;;;;;;4.23;2.60;;;;;;;19.80;56.74;98745.19;5073483;28;20207;-68
2022/07/06 07:48:37;;;;;;;5.50;2.77;;;;;;;19.62;56.29;98751.00;5073385;28;20216;-68
2022/07/06 07:51:04;;;;;;;9.07;2.53;;;;;;;19.62;56.79;98746.41;5073212;28;20567;-68
2022/07/06 07:53:30;;;;;;;5.37;2.40;;;;;;;19.96;55.13;98744.16;5073608;28;20291;-68
2022/07/06 07:55:56;;;;;;;6.67;4.80;;;;;;;19.51;56.96;98747.41;5073100;28;20268;-68
2022/07/06 07:58:23;;;;;;;5.70;2.83;;;;;;;19.84;57.06;98754.38;5073269;28;20233;-68
2022/07/06 08:00:49;;;;;;;6.77;2.60;;;;;;;19.75;56.89;98750.53;5073564;28;20204;-67
2022/07/06 08:03:16;;;;;;;15.30;11.70;;;;;;;20.04;54.69;98746.38;5073001;28;20730;-67
2022/07/06 08:05:43;;;;;;;6.13;2.70;;;;;;;20.25;53.94;98757.03;5073415;28;20209;-68
2022/07/06 08:08:09;;;;;;;3.40;2.30;;;;;;;20.18;54.34;98761.06;5072972;28;20220;-68
2022/07/06 08:10:36;;;;;;;5.23;2.50;;;;;;;20.28;53.72;98755.69;5073150;28;20215;-68
2022/07/06 08:13:02;;;;;;;4.90;2.70;;;;;;;19.25;55.76;98756.38;5072921;28;20695;-68
2022/07/06 08:15:28;;;;;;;3.47;2.53;;;;;;;19.55;56.09;98760.09;5073214;28;20296;-68
2022/07/06 08:17:55;;;;;;;2.60;2.40;;;;;;;19.86;55.02;98758.44;5072756;28;20212;-68
2022/07/06 08:20:22;;;;;;;3.23;2.93;;;;;;;20.16;53.47;98753.22;5072754;28;20238;-67
2022/07/06 08:22:48;;;;;;;4.37;2.80;;;;;;;20.06;53.93;98757.72;5073149;28;20212;-67
2022/07/06 08:25:14;;;;;;;3.80;2.23;;;;;;;20.07;55.10;98757.44;5073098;28;20218;-68
2022/07/06 08:27:41;;;;;;;3.93;2.40;;;;;;;20.45;55.99;98745.50;5073084;28;20204;-67
2022/07/06 08:30:08;;;;;;;3.70;2.53;;;;;;;20.83;53.53;98750.44;5072909;28;20553;-67
2022/07/06 08:32:39;;;;;;;4.20;2.53;;;;;;;21.00;53.31;98751.06;5072737;28;20205;-68
2022/07/06 08:35:06;;;;;;;3.73;2.60;;;;;;;20.60;53.14;98756.34;5072523;28;20279;-68
2022/07/06 08:37:33;;;;;;;3.00;2.70;;;;;;;20.00;54.58;98745.28;5072589;28;20201;-68
2022/07/06 08:39:59;;;;;;;4.63;2.37;;;;;;;20.53;55.45;98755.78;5072662;28;20234;-68
2022/07/06 08:42:31;;;;;;;4.20;2.60;;;;;;;20.77;53.87;98756.94;5072530;28;20204;-68
2022/07/06 08:45:01;;;;;;;7.70;2.57;;;;;;;20.76;52.20;98756.09;5072748;28;20188;-68
2022/07/06 08:47:28;;;;;;;3.23;2.50;;;;;;;20.82;53.73;98754.22;5072551;28;20193;-68
2022/07/06 08:49:56;;;;;;;4.17;2.57;;;;;;;20.86;53.38;98744.50;5072561;28;20252;-68
2022/07/06 08:52:23;;;;;;;4.37;2.43;;;;;;;21.11;53.22;98747.28;5072707;28;20295;-67
2022/07/06 08:54:50;;;;;;;5.37;2.60;;;;;;;21.06;52.24;98753.50;5072338;28;20295;-68
2022/07/06 08:57:18;;;;;;;3.87;2.60;;;;;;;20.53;52.98;98748.47;5072532;28;20671;-68
2022/07/06 08:59:45;;;;;;;3.73;2.80;;;;;;;21.02;52.63;98757.03;5072713;28;20319;-68
2022/07/06 09:02:12;;;;;;;4.80;2.47;;;;;;;20.98;51.51;98751.31;5072742;28;20207;-67
2022/07/06 09:04:38;;;;;;;4.07;2.43;;;;;;;20.61;51.45;98750.69;5073351;28;20659;-68
2022/07/06 09:07:05;;;;;;;3.87;2.20;;;;;;;20.98;52.65;98759.44;5072834;28;20249;-68
2022/07/06 09:09:31;;;;;;;4.27;2.37;;;;;;;21.43;53.99;98758.66;5073068;28;20650;-67
2022/07/06 09:11:58;;;;;;;6.03;3.00;;;;;;;21.12;51.70;98765.13;5072661;28;20204;-67
2022/07/06 09:14:25;;;;;;;4.53;2.70;;;;;;;20.82;51.65;98759.63;5072362;28;20861;-68
2022/07/06 09:17:06;;;;;;;5.50;2.70;;;;;;;21.01;51.42;98771.59;5072535;28;20296;-67
2022/07/06 09:19:34;;;;;;;3.83;2.60;;;;;;;21.21;51.76;98752.69;5072148;28;20224;-67
2022/07/06 09:22:04;;;;;;;5.53;2.40;;;;;;;21.43;51.73;98762.16;5072402;28;20687;-67
2022/07/06 09:24:31;;;;;;;3.73;2.70;;;;;;;21.85;49.95;98764.56;5073238;28;20262;-67
2022/07/06 09:27:00;;;;;;;3.77;2.37;;;;;;;21.22;50.57;98757.03;5072310;28;20215;-68
2022/07/06 09:29:31;;;;;;;3.97;2.50;;;;;;;21.50;49.37;98761.88;5072221;28;20217;-68
2022/07/06 09:31:59;;;;;;;5.60;2.70;;;;;;;21.89;49.29;98773.78;5072493;28;20201;-68
2022/07/06 09:34:26;;;;;;;5.20;2.17;;;;;;;21.56;50.23;98766.22;5071976;28;20657;-69
2022/07/06 09:36:53;;;;;;;5.57;2.40;;;;;;;21.85;48.41;98770.00;5074669;28;20269;-68
2022/07/06 09:39:24;;;;;;;5.73;3.43;;;;;;;21.50;49.79;98772.69;5075540;28;20225;-69
2022/07/06 09:41:56;;;;;;;10.10;2.77;;;;;;;21.78;50.06;98774.88;5075134;28;20262;-68
2022/07/06 09:44:37;;;;;;;5.47;2.30;;;;;;;22.41;49.04;98766.84;5075297;28;20189;-71
2022/07/06 09:47:06;;;;;;;5.50;2.30;;;;;;;21.56;47.54;98775.13;5075989;28;20193;-71
2022/07/06 09:49:33;;;;;;;3.03;2.23;;;;;;;22.16;46.92;98776.97;5075648;28;20224;-72
2022/07/06 09:52:02;;;;;;;4.77;2.20;;;;;;;22.35;46.26;98776.09;5075580;28;20209;-71
2022/07/06 09:54:28;;;;;;;3.40;3.10;;;;;;;22.29;47.89;98773.66;5075516;28;20215;-69
2022/07/06 09:56:56;;;;;;;7.17;2.60;;;;;;;22.28;48.15;98778.25;5075236;28;20751;-69
2022/07/06 09:59:28;;;;;;;2.80;2.13;;;;;;;22.11;48.59;98777.75;5075306;28;20224;-68
2022/07/06 10:01:57;;;;;;;4.20;2.40;;;;;;;21.91;50.09;98780.53;5076208;28;20189;-69
2022/07/06 10:04:25;;;;;;;4.73;2.77;;;;;;;22.19;48.20;98774.50;5075593;28;20296;-70
2022/07/06 10:06:52;;;;;;;4.67;2.40;;;;;;;21.81;49.69;98782.44;5075425;28;20232;-69
2022/07/06 10:09:20;;;;;;;5.53;2.40;;;;;;;21.61;47.81;98785.94;5075093;28;20217;-69
2022/07/06 10:11:53;;;;;;;5.83;2.63;;;;;;;21.58;48.52;98785.69;5074815;28;20211;-69
2022/07/06 10:14:22;;;;;;;4.90;2.37;;;;;;;21.96;49.06;98787.81;5074814;28;20295;-69
2022/07/06 10:16:49;;;;;;;9.83;5.23;;;;;;;21.91;47.75;98791.38;5075150;28;20200;-70
2022/07/06 10:19:17;;;;;;;5.60;2.30;;;;;;;22.83;48.39;98782.66;5074940;28;20315;-69
2022/07/06 10:21:45;;;;;;;5.57;2.90;;;;;;;22.30;47.65;98791.53;5075094;28;20295;-69
2022/07/06 10:24:13;;;;;;;6.07;2.80;;;;;;;22.39;47.55;98790.66;5075149;28;20239;-69
2022/07/06 10:26:40;;;;;;;5.17;2.47;;;;;;;22.26;47.87;98783.16;5074988;28;20257;-69
2022/07/06 10:29:07;;;;;;;3.20;2.80;;;;;;;22.49;47.47;98793.41;5074849;28;20614;-69
2022/07/06 10:31:36;;;;;;;3.23;2.90;;;;;;;21.59;48.48;98800.84;5074927;28;20602;-69
2022/07/06 10:34:06;;;;;;;12.90;11.53;;;;;;;21.46;48.80;98798.69;5074442;28;20204;-69
2022/07/06 10:36:38;;;;;;;5.63;2.40;;;;;;;21.80;47.99;98794.38;5074679;28;20644;-69
2022/07/06 10:41:02;;;;;;;5.43;3.53;;;;;;;21.71;48.56;98790.59;5074564;28;20224;-69
2022/07/06 10:41:51;;;;;;;4.53;2.93;;;;;;;21.80;48.91;98791.66;5073469;28;20200;-69
2022/07/06 10:44:19;;;;;;;6.33;2.90;;;;;;;21.74;49.30;98792.72;5074660;28;20258;-69
2022/07/06 10:46:56;;;;;;;4.97;3.17;;;;;;;21.80;48.91;98792.44;5073752;28;20204;-69
2022/07/06 10:49:24;;;;;;;7.37;3.70;;;;;;;22.18;47.82;98791.03;5074320;28;20583;-69
2022/07/06 10:51:51;;;;;;;12.27;7.23;;;;;;;22.14;47.71;98795.38;5074089;28;20636;-69
2022/07/06 10:54:19;;;;;;;3.40;2.43;;;;;;;22.47;48.01;98778.50;5074054;28;20770;-68
2022/07/06 10:56:48;;;;;;;4.47;2.43;;;;;;;22.77;46.02;98779.16;5074628;28;20570;-68
2022/07/06 10:59:19;;;;;;;4.43;2.50;;;;;;;22.95;46.28;98785.81;5074019;28;20224;-69
2022/07/06 11:02:15;;;;;;;9.43;5.57;;;;;;;23.37;46.30;98783.38;5074514;28;20211;-69
2022/07/06 11:04:44;;;;;;;3.67;2.30;;;;;;;23.52;47.31;98783.28;5073965;28;20209;-69
2022/07/06 11:07:12;;;;;;;7.13;2.72;;;;;;;23.52;43.80;98777.84;5074141;28;20291;-69
2022/07/06 11:09:42;;;;;;;2.92;2.30;;;;;;;22.67;44.31;98778.38;5074020;28;20311;-69
2022/07/06 11:12:18;;;;;;;7.15;3.20;;;;;;;22.13;45.12;98777.50;5073712;28;20201;-69
2022/07/06 11:14:46;;;;;;;5.73;3.20;;;;;;;22.90;45.82;98789.38;5074171;28;20185;-69
2022/07/06 11:17:12;;;;;;;16.58;14.27;;;;;;;22.28;46.05;98785.56;5073727;28;20205;-68
2022/07/06 11:19:48;;;;;;;13.67;8.93;;;;;;;22.52;46.43;98784.69;5073499;28;20235;-69
2022/07/06 11:22:17;;;;;;;10.03;6.83;;;;;;;22.09;46.54;98779.13;5074443;28;20295;-69
2022/07/06 11:24:44;;;;;;;4.77;2.53;;;;;;;22.40;46.95;98767.09;5073242;28;20663;-68
2022/07/06 11:27:10;;;;;;;3.88;2.75;;;;;;;22.12;47.05;98765.03;5073439;28;20208;-69
2022/07/06 11:29:38;;;;;;;3.97;2.38;;;;;;;22.83;46.45;98758.25;5073370;28;20311;-69
2022/07/06 11:32:09;;;;;;;5.15;3.45;;;;;;;22.55;46.76;98765.16;5073772;28;20253;-68
2022/07/06 11:34:37;;;;;;;9.15;6.35;;;;;;;22.23;47.90;98767.44;5073597;28;20264;-69
2022/07/06 11:37:07;;;;;;;4.63;3.25;;;;;;;22.16;46.94;98766.13;5073084;28;20613;-69